createdAt,value
2022-12-25T07:37:57.749Z,6.14
2022-12-25T07:38:57.514Z,6.22
2022-12-25T07:39:57.480Z,6.15
2022-12-25T07:40:57.473Z,6.12
2022-12-25T07:41:57.461Z,6.22
2022-12-25T07:42:57.369Z,6.21
2022-12-25T07:43:57.369Z,6.17
2022-12-25T07:44:57.321Z,6.11
2022-12-25T07:45:57.364Z,6.08
2022-12-25T07:46:57.283Z,6.18
2022-12-25T07:48:02.710Z,6.15
2022-12-25T07:48:57.226Z,6.19
2022-12-25T07:49:57.209Z,6.18
2022-12-25T07:50:57.184Z,6.15
2022-12-25T07:51:57.160Z,6.17
2022-12-25T07:52:57.171Z,6.30
2022-12-25T07:53:57.129Z,6.28
2022-12-25T07:54:57.150Z,6.31
2022-12-25T07:55:57.098Z,6.30
2022-12-25T07:56:57.074Z,6.30
2022-12-25T07:57:57.049Z,6.33
2022-12-25T07:58:57.048Z,6.34
2022-12-25T07:59:57.050Z,6.33
2022-12-25T08:00:57.062Z,6.37
2022-12-25T08:01:57.312Z,6.43
2022-12-25T08:02:57.123Z,6.41
2022-12-25T08:03:57.061Z,6.40
2022-12-25T08:04:56.937Z,6.44
2022-12-25T08:05:56.906Z,6.49
2022-12-25T08:06:57.045Z,6.52
2022-12-25T08:07:58.060Z,6.52
2022-12-25T08:08:56.873Z,6.52
2022-12-25T08:09:56.831Z,6.51
2022-12-25T08:10:56.815Z,6.61
2022-12-25T08:11:56.820Z,6.54
2022-12-25T08:12:56.804Z,6.55
2022-12-25T08:13:56.756Z,6.55
2022-12-25T08:14:56.766Z,6.54
2022-12-25T08:15:56.721Z,6.55
2022-12-25T08:16:56.790Z,6.52
2022-12-25T08:17:56.682Z,6.55
2022-12-25T08:18:56.667Z,6.58
2022-12-25T08:19:56.682Z,6.61
2022-12-25T08:20:56.633Z,6.62
2022-12-25T08:21:56.622Z,6.62
2022-12-25T08:22:56.628Z,6.61
2022-12-25T08:23:56.582Z,6.69
2022-12-25T08:24:56.573Z,6.64
2022-12-25T08:26:00.374Z,6.61
2022-12-25T08:26:56.530Z,6.66
2022-12-25T08:27:56.511Z,6.64
2022-12-25T08:28:56.497Z,6.62
2022-12-25T08:29:56.527Z,6.66
2022-12-25T08:30:56.842Z,6.77
2022-12-25T08:31:56.483Z,6.67
2022-12-25T08:32:56.436Z,6.76
2022-12-25T08:33:56.404Z,6.67
2022-12-25T08:34:56.427Z,6.74
2022-12-25T08:35:56.454Z,6.73
2022-12-25T08:36:56.402Z,6.81
2022-12-25T08:37:56.389Z,6.77
2022-12-25T08:39:02.596Z,6.70
2022-12-25T08:39:56.307Z,6.76
2022-12-25T08:40:56.290Z,6.67
2022-12-25T08:41:56.265Z,6.81
2022-12-25T08:42:56.286Z,6.77
2022-12-25T08:43:56.295Z,6.81
2022-12-25T08:44:56.220Z,6.84
2022-12-25T08:45:56.223Z,6.84
2022-12-25T08:46:56.199Z,6.84
2022-12-25T08:47:56.165Z,6.80
2022-12-25T08:48:56.152Z,6.79
2022-12-25T08:49:56.165Z,6.77
2022-12-25T08:50:56.129Z,6.77
2022-12-25T08:51:56.145Z,6.92
2022-12-25T08:52:56.082Z,6.95
2022-12-25T08:53:56.085Z,7.02
2022-12-25T08:54:56.048Z,6.97
2022-12-25T08:55:56.027Z,6.97
2022-12-25T08:57:02.338Z,7.06
2022-12-25T08:57:56.055Z,6.99
2022-12-25T08:58:55.991Z,7.07
2022-12-25T08:59:55.959Z,6.99
2022-12-25T09:00:56.074Z,7.05
2022-12-25T09:01:56.015Z,7.07
2022-12-25T09:02:56.148Z,7.03
2022-12-25T09:03:55.899Z,7.03
2022-12-25T09:04:55.880Z,7.09
2022-12-25T09:05:55.858Z,7.03
2022-12-25T09:06:55.843Z,7.07
2022-12-25T09:07:55.825Z,7.15
2022-12-25T09:08:55.872Z,7.12
2022-12-25T09:09:55.792Z,7.12
2022-12-25T09:10:55.787Z,7.15
2022-12-25T09:11:55.765Z,7.12
2022-12-25T09:12:55.750Z,7.20
2022-12-25T09:13:55.727Z,7.12
2022-12-25T09:14:55.760Z,7.10
2022-12-25T09:15:55.742Z,7.12
2022-12-25T09:16:55.678Z,7.13
2022-12-25T09:17:55.676Z,7.15
2022-12-25T09:18:55.643Z,7.17
2022-12-25T09:19:55.624Z,7.23
2022-12-25T09:20:55.622Z,7.21
2022-12-25T09:21:55.627Z,7.15
2022-12-25T09:22:55.575Z,7.10
2022-12-25T09:23:55.565Z,7.15
2022-12-25T09:24:55.542Z,7.12
2022-12-25T09:25:55.548Z,7.16
2022-12-25T09:26:55.511Z,7.27
2022-12-25T09:27:55.489Z,7.15
2022-12-25T09:28:55.476Z,7.16
2022-12-25T09:29:55.479Z,7.20
2022-12-25T09:30:55.516Z,7.13
2022-12-25T09:31:55.439Z,7.16
2022-12-25T09:32:55.412Z,7.23
2022-12-25T09:33:55.400Z,7.13
2022-12-25T09:34:55.374Z,7.25
2022-12-25T09:35:55.352Z,7.27
2022-12-25T09:36:55.389Z,7.27
2022-12-25T09:37:55.331Z,7.28
2022-12-25T09:38:55.307Z,7.28
2022-12-25T09:39:55.298Z,7.23
2022-12-25T09:40:55.277Z,7.27
2022-12-25T09:41:55.248Z,7.30
2022-12-25T09:42:55.289Z,7.27
2022-12-25T09:43:55.221Z,7.21
2022-12-25T09:44:55.215Z,7.27
2022-12-25T09:45:55.228Z,7.27
2022-12-25T09:46:55.319Z,7.12
2022-12-25T09:47:55.173Z,7.17
2022-12-25T09:48:55.176Z,7.23
2022-12-25T09:49:55.121Z,7.20
2022-12-25T09:50:55.111Z,7.15
2022-12-25T09:51:55.098Z,7.15
2022-12-25T09:52:55.072Z,7.21
2022-12-25T09:53:55.053Z,7.21
2022-12-25T09:54:55.090Z,7.28
2022-12-25T09:55:55.021Z,7.28
2022-12-25T09:56:55.003Z,7.27
2022-12-25T09:57:54.981Z,7.25
2022-12-25T09:58:54.979Z,7.27
2022-12-25T09:59:54.952Z,7.31
2022-12-25T10:00:54.945Z,7.32
2022-12-25T10:01:55.144Z,7.30
2022-12-25T10:02:55.012Z,7.31
2022-12-25T10:03:54.924Z,7.24
2022-12-25T10:04:54.889Z,7.32
2022-12-25T10:05:54.848Z,7.35
2022-12-25T10:06:54.919Z,7.37
2022-12-25T10:07:54.816Z,7.40
2022-12-25T10:08:54.815Z,7.31
2022-12-25T10:09:54.784Z,7.39
2022-12-25T10:10:54.805Z,7.39
2022-12-25T10:11:54.805Z,7.31
2022-12-25T10:12:54.832Z,7.30
2022-12-25T10:13:54.781Z,7.42
2022-12-25T10:14:54.705Z,7.39
2022-12-25T10:15:54.778Z,7.31
2022-12-25T10:16:54.718Z,7.39
2022-12-25T10:17:54.653Z,7.35
2022-12-25T10:18:54.635Z,7.42
2022-12-25T10:19:54.644Z,7.39
2022-12-25T10:20:54.596Z,7.43
2022-12-25T10:21:54.582Z,7.37
2022-12-25T10:22:54.566Z,7.42
2022-12-25T10:23:54.553Z,7.50
2022-12-25T10:24:54.538Z,7.42
2022-12-25T10:25:54.518Z,7.39
2022-12-25T10:26:54.506Z,7.42
2022-12-25T10:27:54.507Z,7.49
2022-12-25T10:28:54.491Z,7.46
2022-12-25T10:29:54.499Z,7.55
2022-12-25T10:30:54.461Z,7.49
2022-12-25T10:31:54.454Z,7.53
2022-12-25T10:32:54.439Z,7.46
2022-12-25T10:33:54.420Z,7.49
2022-12-25T10:34:54.362Z,7.49
2022-12-25T10:35:54.403Z,7.40
2022-12-25T10:36:54.363Z,7.39
2022-12-25T10:37:54.357Z,7.42
2022-12-25T10:38:54.318Z,7.43
2022-12-25T10:39:54.330Z,7.39
2022-12-25T10:40:54.263Z,7.37
2022-12-25T10:41:54.303Z,7.31
2022-12-25T10:42:54.277Z,7.50
2022-12-25T10:43:54.236Z,7.49
2022-12-25T10:44:54.194Z,7.50
2022-12-25T10:45:54.183Z,7.50
2022-12-25T10:46:54.251Z,7.48
2022-12-25T10:48:01.965Z,7.49
2022-12-25T10:48:54.133Z,7.48
2022-12-25T10:49:54.119Z,7.46
2022-12-25T10:50:54.095Z,7.45
2022-12-25T10:51:54.104Z,7.42
2022-12-25T10:52:54.071Z,7.46
2022-12-25T10:53:54.051Z,7.58
2022-12-25T10:54:54.026Z,7.53
2022-12-25T10:55:54.040Z,7.57
2022-12-25T10:56:53.996Z,7.58
2022-12-25T10:57:53.981Z,7.55
2022-12-25T10:58:53.996Z,7.55
2022-12-25T10:59:53.944Z,7.58
2022-12-25T11:00:53.991Z,7.61
2022-12-25T11:01:55.618Z,7.53
2022-12-25T11:02:54.300Z,7.60
2022-12-25T11:03:54.026Z,7.60
2022-12-25T11:04:53.864Z,7.57
2022-12-25T11:05:53.853Z,7.60
2022-12-25T11:06:53.837Z,7.57
2022-12-25T11:07:53.839Z,7.61
2022-12-25T11:08:53.795Z,7.61
2022-12-25T11:09:55.420Z,7.57
2022-12-25T11:10:53.764Z,7.68
2022-12-25T11:11:53.746Z,7.72
2022-12-25T11:12:53.736Z,7.67
2022-12-25T11:13:53.717Z,7.72
2022-12-25T11:14:53.794Z,7.63
2022-12-25T11:15:53.710Z,7.64
2022-12-25T11:16:53.673Z,7.69
2022-12-25T11:17:53.652Z,7.77
2022-12-25T11:18:53.625Z,7.68
2022-12-25T11:19:53.633Z,7.67
2022-12-25T11:20:53.646Z,7.74
2022-12-25T11:21:53.586Z,7.71
2022-12-25T11:22:53.579Z,7.61
2022-12-25T11:23:53.545Z,7.72
2022-12-25T11:24:53.531Z,7.68
2022-12-25T11:25:53.527Z,7.68
2022-12-25T11:26:53.494Z,7.69
2022-12-25T11:27:53.758Z,7.67
2022-12-25T11:28:53.465Z,7.69
2022-12-25T11:29:53.445Z,7.68
2022-12-25T11:30:53.545Z,7.72
2022-12-25T11:31:53.491Z,7.69
2022-12-25T11:32:53.576Z,7.75
2022-12-25T11:33:53.408Z,7.75
2022-12-25T11:34:53.367Z,7.75
2022-12-25T11:35:53.373Z,7.82
2022-12-25T11:36:53.351Z,7.74
2022-12-25T11:37:53.326Z,7.79
2022-12-25T11:38:53.379Z,7.79
2022-12-25T11:39:53.288Z,7.77
2022-12-25T11:40:53.274Z,7.82
2022-12-25T11:41:53.249Z,7.77
2022-12-25T11:42:53.332Z,7.82
2022-12-25T11:43:53.219Z,7.75
2022-12-25T11:44:53.226Z,7.80
2022-12-25T11:45:53.188Z,7.77
2022-12-25T11:46:53.203Z,7.79
2022-12-25T11:47:53.159Z,7.77
2022-12-25T11:48:53.216Z,7.79
2022-12-25T11:49:58.612Z,7.86
2022-12-25T11:50:53.099Z,7.82
2022-12-25T11:51:53.131Z,7.82
2022-12-25T11:52:53.097Z,7.90
2022-12-25T11:53:53.061Z,7.85
2022-12-25T11:54:53.061Z,7.83
2022-12-25T11:55:53.017Z,7.86
2022-12-25T11:56:53.017Z,7.89
2022-12-25T11:57:52.994Z,7.77
2022-12-25T11:58:52.967Z,7.86
2022-12-25T11:59:52.997Z,7.82
2022-12-25T12:00:52.943Z,7.83
2022-12-25T12:01:53.026Z,7.86
2022-12-25T12:02:53.185Z,7.85
2022-12-25T12:03:52.906Z,7.85
2022-12-25T12:04:52.865Z,7.82
2022-12-25T12:05:52.854Z,7.83
2022-12-25T12:06:52.831Z,7.86
2022-12-25T12:07:52.844Z,7.83
2022-12-25T12:08:52.798Z,7.86
2022-12-25T12:09:52.839Z,7.86
2022-12-25T12:10:52.775Z,7.85
2022-12-25T12:11:52.752Z,7.87
2022-12-25T12:12:52.734Z,7.85
2022-12-25T12:13:52.724Z,7.89
2022-12-25T12:14:52.699Z,7.85
2022-12-25T12:15:52.712Z,7.79
2022-12-25T12:16:52.713Z,7.85
2022-12-25T12:17:52.818Z,7.82
2022-12-25T12:18:52.639Z,7.82
2022-12-25T12:19:52.644Z,7.82
2022-12-25T12:20:52.602Z,7.89
2022-12-25T12:21:52.606Z,7.82
2022-12-25T12:22:52.703Z,7.85
2022-12-25T12:23:52.590Z,7.83
2022-12-25T12:24:52.536Z,7.85
2022-12-25T12:25:52.522Z,7.86
2022-12-25T12:26:52.505Z,7.82
2022-12-25T12:27:52.484Z,7.98
2022-12-25T12:28:52.484Z,7.83
2022-12-25T12:29:52.462Z,7.89
2022-12-25T12:30:52.448Z,7.90
2022-12-25T12:31:52.463Z,7.95
2022-12-25T12:32:52.409Z,7.89
2022-12-25T12:33:52.415Z,7.93
2022-12-25T12:34:52.366Z,7.92
2022-12-25T12:35:52.350Z,7.89
2022-12-25T12:36:52.342Z,7.92
2022-12-25T12:37:52.330Z,7.93
2022-12-25T12:38:52.303Z,7.95
2022-12-25T12:39:52.287Z,7.95
2022-12-25T12:40:52.262Z,7.93
2022-12-25T12:41:52.281Z,7.89
2022-12-25T12:42:52.330Z,8.00
2022-12-25T12:43:52.455Z,7.97
2022-12-25T12:44:52.211Z,7.95
2022-12-25T12:45:52.207Z,7.95
2022-12-25T12:46:52.174Z,7.95
2022-12-25T12:47:52.208Z,7.93
2022-12-25T12:48:52.133Z,8.01
2022-12-25T12:49:52.125Z,8.00
2022-12-25T12:50:52.204Z,7.93
2022-12-25T12:51:52.087Z,8.01
2022-12-25T12:52:52.120Z,7.95
2022-12-25T12:53:52.082Z,8.01
2022-12-25T12:54:52.108Z,8.04
2022-12-25T12:55:52.051Z,8.07
2022-12-25T12:56:52.004Z,8.00
2022-12-25T12:57:51.988Z,8.00
2022-12-25T12:58:51.991Z,8.01
2022-12-25T12:59:51.951Z,8.04
2022-12-25T13:00:51.981Z,8.02
2022-12-25T13:01:52.140Z,8.04
2022-12-25T13:02:52.067Z,8.08
2022-12-25T13:03:51.923Z,8.08
2022-12-25T13:04:51.878Z,8.07
2022-12-25T13:05:51.914Z,8.00
2022-12-25T13:06:51.871Z,8.08
2022-12-25T13:07:51.882Z,8.12
2022-12-25T13:08:51.884Z,8.04
2022-12-25T13:09:51.825Z,8.08
2022-12-25T13:10:51.769Z,7.97
2022-12-25T13:11:51.786Z,8.07
2022-12-25T13:12:51.742Z,8.07
2022-12-25T13:13:51.752Z,8.10
2022-12-25T13:14:51.729Z,8.07
2022-12-25T13:15:51.688Z,8.07
2022-12-25T13:16:51.789Z,8.05
2022-12-25T13:17:51.721Z,8.11
2022-12-25T13:18:51.648Z,8.07
2022-12-25T13:19:51.647Z,8.15
2022-12-25T13:20:51.626Z,8.08
2022-12-25T13:21:51.618Z,8.11
2022-12-25T13:22:53.169Z,8.07
2022-12-25T13:23:51.564Z,8.07
2022-12-25T13:24:51.541Z,8.08
2022-12-25T13:25:51.539Z,8.12
2022-12-25T13:26:51.516Z,8.05
2022-12-25T13:27:51.493Z,8.12
2022-12-25T13:28:51.490Z,8.11
2022-12-25T13:29:51.464Z,8.11
2022-12-25T13:30:51.475Z,8.15
2022-12-25T13:31:51.458Z,8.15
2022-12-25T13:32:51.593Z,8.08
2022-12-25T13:33:51.461Z,8.08
2022-12-25T13:34:51.376Z,8.07
2022-12-25T13:35:51.372Z,8.07
2022-12-25T13:36:51.340Z,8.11
2022-12-25T13:37:51.327Z,8.11
2022-12-25T13:38:51.325Z,8.12
2022-12-25T13:39:51.299Z,8.07
2022-12-25T13:40:51.282Z,8.07
2022-12-25T13:41:51.264Z,8.05
2022-12-25T13:42:51.241Z,8.10
2022-12-25T13:43:51.227Z,8.08
2022-12-25T13:44:51.210Z,8.12
2022-12-25T13:45:51.250Z,8.08
2022-12-25T13:46:51.218Z,8.12
2022-12-25T13:47:55.260Z,8.15
2022-12-25T13:48:51.166Z,8.15
2022-12-25T13:49:51.131Z,8.19
2022-12-25T13:50:51.144Z,8.11
2022-12-25T13:51:51.202Z,8.10
2022-12-25T13:52:51.072Z,8.10
2022-12-25T13:53:51.062Z,8.16
2022-12-25T13:54:51.047Z,8.11
2022-12-25T13:55:51.055Z,8.16
2022-12-25T13:56:51.013Z,8.16
2022-12-25T13:57:51.007Z,8.11
2022-12-25T13:58:50.974Z,8.11
2022-12-25T13:59:50.959Z,8.15
2022-12-25T14:00:51.009Z,8.05
2022-12-25T14:01:51.045Z,8.12
2022-12-25T14:02:51.084Z,8.07
2022-12-25T14:03:50.898Z,8.19
2022-12-25T14:04:50.879Z,8.07
2022-12-25T14:05:50.895Z,8.07
2022-12-25T14:06:50.874Z,8.19
2022-12-25T14:07:50.831Z,8.11
2022-12-25T14:08:50.816Z,8.10
2022-12-25T14:09:50.823Z,8.20
2022-12-25T14:10:50.806Z,8.15
2022-12-25T14:11:50.769Z,8.23
2022-12-25T14:12:50.752Z,8.18
2022-12-25T14:13:50.731Z,8.18
2022-12-25T14:14:50.717Z,8.19
2022-12-25T14:15:50.735Z,8.19
2022-12-25T14:16:50.802Z,8.08
2022-12-25T14:17:50.762Z,8.10
2022-12-25T14:18:50.692Z,8.11
2022-12-25T14:19:50.738Z,8.12
2022-12-25T14:20:50.648Z,8.18
2022-12-25T14:21:50.625Z,8.20
2022-12-25T14:22:50.578Z,8.08
2022-12-25T14:23:50.614Z,8.08
2022-12-25T14:24:50.546Z,8.16
2022-12-25T14:25:50.620Z,8.08
2022-12-25T14:26:50.515Z,8.15
2022-12-25T14:27:50.542Z,8.11
2022-12-25T14:28:50.551Z,8.15
2022-12-25T14:29:50.488Z,8.15
2022-12-25T14:30:50.531Z,8.12
2022-12-25T14:31:50.439Z,8.08
2022-12-25T14:32:50.420Z,8.07
2022-12-25T14:33:50.418Z,8.10
2022-12-25T14:34:50.429Z,8.10
2022-12-25T14:35:50.373Z,8.08
2022-12-25T14:36:50.385Z,8.11
2022-12-25T14:37:50.335Z,8.12
2022-12-25T14:38:50.382Z,8.10
2022-12-25T14:39:50.303Z,8.18
2022-12-25T14:40:50.285Z,8.16
2022-12-25T14:41:50.268Z,8.16
2022-12-25T14:42:50.258Z,8.16
2022-12-25T14:43:50.233Z,8.08
2022-12-25T14:44:50.257Z,8.02
2022-12-25T14:45:50.213Z,8.18
2022-12-25T14:46:50.189Z,8.11
2022-12-25T14:47:50.171Z,8.16
2022-12-25T14:48:50.153Z,8.10
2022-12-25T14:49:50.171Z,8.12
2022-12-25T14:50:50.127Z,8.15
2022-12-25T14:51:50.144Z,8.04
2022-12-25T14:52:50.093Z,8.08
2022-12-25T14:53:50.085Z,8.15
2022-12-25T14:54:50.053Z,8.11
2022-12-25T14:55:50.033Z,8.10
2022-12-25T14:56:50.024Z,8.08
2022-12-25T14:57:50.049Z,8.18
2022-12-25T14:58:49.988Z,8.10
2022-12-25T14:59:49.978Z,8.12
2022-12-25T15:00:49.955Z,8.10
2022-12-25T15:01:50.101Z,8.08
2022-12-25T15:02:50.265Z,8.07
2022-12-25T15:03:49.982Z,8.07
2022-12-25T15:04:49.928Z,8.08
2022-12-25T15:05:49.877Z,8.11
2022-12-25T15:06:49.918Z,8.08
2022-12-25T15:07:49.834Z,8.11
2022-12-25T15:08:49.828Z,8.10
2022-12-25T15:09:49.809Z,8.16
2022-12-25T15:11:05.468Z,8.15
2022-12-25T15:11:49.769Z,8.16
2022-12-25T15:12:49.775Z,8.11
2022-12-25T15:13:49.759Z,8.10
2022-12-25T15:14:49.727Z,8.12
2022-12-25T15:15:49.777Z,8.12
2022-12-25T15:16:49.689Z,8.08
2022-12-25T15:17:49.672Z,8.08
2022-12-25T15:18:49.655Z,8.08
2022-12-25T15:19:49.638Z,8.16
2022-12-25T15:20:49.663Z,8.10
2022-12-25T15:21:49.613Z,8.10
2022-12-25T15:23:17.897Z,8.15
2022-12-25T15:23:49.573Z,8.20
2022-12-25T15:24:49.560Z,8.18
2022-12-25T15:25:49.586Z,8.16
2022-12-25T15:26:49.557Z,8.16
2022-12-25T15:27:49.508Z,8.16
2022-12-25T15:28:49.505Z,8.20
2022-12-25T15:30:49.501Z,8.29
2022-12-25T15:31:49.438Z,8.28
2022-12-25T15:32:49.460Z,8.20
2022-12-25T15:33:49.415Z,8.19
2022-12-25T15:34:49.396Z,8.23
2022-12-25T15:35:49.395Z,8.19
2022-12-25T15:36:49.360Z,8.25
2022-12-25T15:37:49.397Z,8.15
2022-12-25T15:38:49.338Z,8.19
2022-12-25T15:39:49.307Z,8.19
2022-12-25T15:40:49.323Z,8.20
2022-12-25T15:41:49.304Z,8.18
2022-12-25T15:42:49.264Z,8.16
2022-12-25T15:43:49.255Z,8.18
2022-12-25T15:44:49.261Z,8.19
2022-12-25T15:45:49.208Z,8.19
2022-12-25T15:46:49.249Z,8.16
2022-12-25T15:47:49.182Z,8.07
2022-12-25T15:48:49.184Z,8.12
2022-12-25T15:49:49.137Z,8.16
2022-12-25T15:50:49.181Z,8.16
2022-12-25T15:51:49.111Z,8.15
2022-12-25T15:52:49.093Z,8.10
2022-12-25T15:53:49.078Z,8.15
2022-12-25T15:54:49.063Z,8.18
2022-12-25T15:55:49.042Z,8.16
2022-12-25T15:56:49.067Z,8.18
2022-12-25T15:57:49.016Z,8.22
2022-12-25T15:58:48.995Z,8.20
2022-12-25T15:59:49.000Z,8.20
2022-12-25T16:00:48.961Z,8.19
2022-12-25T16:01:49.053Z,8.19
2022-12-25T16:02:49.180Z,8.16
2022-12-25T16:03:49.025Z,8.19
2022-12-25T16:04:48.915Z,8.20
2022-12-25T16:05:48.878Z,8.19
2022-12-25T16:06:48.865Z,8.07
2022-12-25T16:07:48.853Z,8.20
2022-12-25T16:08:48.827Z,8.08
2022-12-25T16:09:48.807Z,8.16
2022-12-25T16:10:48.806Z,8.12
2022-12-25T16:11:48.806Z,8.16
2022-12-25T16:12:48.762Z,8.20
2022-12-25T16:13:48.824Z,8.23
2022-12-25T16:14:48.753Z,8.19
2022-12-25T16:15:48.728Z,8.26
2022-12-25T16:16:48.706Z,8.25
2022-12-25T16:17:48.679Z,8.22
2022-12-25T16:18:48.673Z,8.23
2022-12-25T16:19:48.700Z,8.29
2022-12-25T16:20:48.629Z,8.26
2022-12-25T16:21:48.610Z,8.25
2022-12-25T16:22:48.598Z,8.16
2022-12-25T16:23:48.600Z,8.19
2022-12-25T16:24:48.577Z,8.16
2022-12-25T16:25:48.550Z,8.20
2022-12-25T16:26:48.531Z,8.20
2022-12-25T16:27:48.510Z,8.23
2022-12-25T16:28:48.496Z,8.20
2022-12-25T16:29:48.480Z,8.25
2022-12-25T16:30:48.539Z,8.26
2022-12-25T16:31:48.468Z,8.30
2022-12-25T16:32:48.432Z,8.18
2022-12-25T16:33:48.410Z,8.28
2022-12-25T16:34:48.394Z,8.29
2022-12-25T16:35:48.380Z,8.26
2022-12-25T16:36:48.394Z,8.28
2022-12-25T16:37:48.359Z,8.26
2022-12-25T16:38:48.332Z,8.26
2022-12-25T16:39:48.321Z,8.25
2022-12-25T16:40:48.308Z,8.20
2022-12-25T16:41:48.336Z,8.25
2022-12-25T16:42:48.268Z,8.37
2022-12-25T16:43:48.273Z,8.26
2022-12-25T16:44:48.234Z,8.29
2022-12-25T16:45:48.214Z,8.28
2022-12-25T16:46:48.235Z,8.25
2022-12-25T16:47:48.190Z,8.29
2022-12-25T16:48:48.191Z,8.28
2022-12-25T16:49:48.150Z,8.36
2022-12-25T16:50:48.137Z,8.25
2022-12-25T16:51:48.121Z,8.26
2022-12-25T16:52:48.158Z,8.22
2022-12-25T16:53:48.090Z,8.23
2022-12-25T16:54:48.068Z,8.23
2022-12-25T16:55:48.046Z,8.22
2022-12-25T16:56:48.049Z,8.16
2022-12-25T16:57:48.017Z,8.19
2022-12-25T16:58:48.085Z,8.19
2022-12-25T16:59:47.980Z,8.25
2022-12-25T17:00:49.667Z,8.22
2022-12-25T17:01:48.295Z,8.18
2022-12-25T17:02:48.051Z,8.10
2022-12-25T17:03:48.048Z,8.16
2022-12-25T17:04:47.917Z,8.19
2022-12-25T17:05:47.889Z,8.15
2022-12-25T17:06:47.873Z,8.20
2022-12-25T17:07:47.867Z,8.20
2022-12-25T17:08:47.866Z,8.20
2022-12-25T17:09:47.823Z,8.16
2022-12-25T17:10:47.834Z,8.22
2022-12-25T17:11:47.787Z,8.23
2022-12-25T17:12:47.770Z,8.23
2022-12-25T17:13:47.755Z,8.28
2022-12-25T17:14:47.803Z,8.26
2022-12-25T17:15:50.594Z,8.22
2022-12-25T17:16:47.778Z,8.20
2022-12-25T17:17:47.692Z,8.26
2022-12-25T17:18:47.674Z,8.23
2022-12-25T17:19:47.650Z,8.22
2022-12-25T17:20:47.704Z,8.22
2022-12-25T17:21:47.626Z,8.18
2022-12-25T17:22:47.606Z,8.22
2022-12-25T17:23:47.608Z,8.23
2022-12-25T17:24:47.589Z,8.18
2022-12-25T17:25:47.555Z,8.18
2022-12-25T17:26:47.564Z,8.07
2022-12-25T17:27:47.521Z,8.15
2022-12-25T17:28:47.506Z,8.08
2022-12-25T17:29:47.492Z,8.16
2022-12-25T17:30:47.475Z,8.20
2022-12-25T17:31:47.599Z,8.23
2022-12-25T17:32:47.495Z,8.20
2022-12-25T17:33:47.423Z,8.18
2022-12-25T17:34:47.405Z,8.23
2022-12-25T17:35:47.407Z,8.29
2022-12-25T17:36:47.402Z,8.19
2022-12-25T17:37:47.354Z,8.25
2022-12-25T17:38:47.394Z,8.28
2022-12-25T17:39:47.353Z,8.20
2022-12-25T17:40:47.353Z,8.22
2022-12-25T17:41:47.304Z,8.20
2022-12-25T17:42:47.280Z,8.19
2022-12-25T17:43:47.260Z,8.23
2022-12-25T17:44:47.245Z,8.30
2022-12-25T17:45:47.252Z,8.28
2022-12-25T17:46:47.298Z,8.33
2022-12-25T17:47:47.186Z,8.30
2022-12-25T17:48:47.189Z,8.34
2022-12-25T17:49:47.206Z,8.22
2022-12-25T17:50:47.150Z,8.25
2022-12-25T17:51:47.124Z,8.22
2022-12-25T17:52:47.117Z,8.30
2022-12-25T17:53:47.099Z,8.28
2022-12-25T17:54:47.083Z,8.26
2022-12-25T17:55:47.096Z,8.26
2022-12-25T17:56:47.044Z,8.36
2022-12-25T17:57:47.026Z,8.26
2022-12-25T17:58:47.016Z,8.26
2022-12-25T17:59:46.990Z,8.33
2022-12-25T18:00:46.979Z,8.30
2022-12-25T18:01:47.307Z,8.37
2022-12-25T18:02:47.258Z,8.29
2022-12-25T18:03:46.968Z,8.38
2022-12-25T18:04:46.910Z,8.34
2022-12-25T18:05:46.894Z,8.34
2022-12-25T18:06:46.911Z,8.38
2022-12-25T18:07:46.922Z,8.28
2022-12-25T18:08:46.848Z,8.33
2022-12-25T18:09:46.825Z,8.36
2022-12-25T18:10:46.809Z,8.26
2022-12-25T18:11:46.805Z,8.34
2022-12-25T18:12:46.784Z,8.36
2022-12-25T18:13:46.766Z,8.43
2022-12-25T18:14:46.751Z,8.47
2022-12-25T18:15:46.764Z,8.43
2022-12-25T18:16:46.859Z,8.41
2022-12-25T18:17:46.694Z,8.30
2022-12-25T18:18:51.843Z,8.30
2022-12-25T18:19:46.662Z,8.29
2022-12-25T18:20:46.648Z,8.40
2022-12-25T18:21:46.628Z,8.45
2022-12-25T18:22:46.616Z,8.50
2022-12-25T18:23:46.604Z,8.52
2022-12-25T18:24:46.628Z,8.50
2022-12-25T18:25:46.558Z,8.52
2022-12-25T18:26:46.549Z,8.52
2022-12-25T18:27:46.573Z,8.43
2022-12-25T18:28:46.720Z,8.43
2022-12-25T18:29:46.497Z,8.40
2022-12-25T18:30:46.542Z,8.45
2022-12-25T18:31:46.534Z,8.40
2022-12-25T18:32:46.857Z,8.38
2022-12-25T18:33:46.480Z,8.33
2022-12-25T18:34:46.623Z,8.28
2022-12-25T18:35:46.596Z,8.34
2022-12-25T18:36:46.388Z,8.29
2022-12-25T18:37:46.367Z,8.28
2022-12-25T18:38:46.353Z,8.29
2022-12-25T18:39:46.328Z,8.26
2022-12-25T18:40:46.321Z,8.22
2022-12-25T18:41:46.367Z,8.29
2022-12-25T18:42:46.300Z,8.37
2022-12-25T18:43:54.372Z,8.33
2022-12-25T18:44:46.249Z,8.29
2022-12-25T18:45:46.287Z,8.41
2022-12-25T18:46:46.239Z,8.43
2022-12-25T18:47:46.238Z,8.56
2022-12-25T18:48:46.183Z,8.58
2022-12-25T18:49:46.197Z,8.63
2022-12-25T18:50:46.157Z,8.66
2022-12-25T18:51:46.134Z,8.61
2022-12-25T18:52:49.020Z,8.61
2022-12-25T18:53:46.205Z,8.59
2022-12-25T18:54:46.088Z,8.66
2022-12-25T18:55:46.071Z,8.63
2022-12-25T18:56:49.521Z,8.68
2022-12-25T18:57:46.136Z,8.71
2022-12-25T18:58:46.040Z,8.74
2022-12-25T18:59:46.018Z,8.68
2022-12-25T19:00:46.000Z,8.79
2022-12-25T19:01:46.102Z,8.71
2022-12-25T19:02:46.036Z,8.86
2022-12-25T19:03:45.986Z,8.74
2022-12-25T19:04:45.920Z,8.81
2022-12-25T19:05:45.906Z,8.84
2022-12-25T19:06:45.944Z,8.86
2022-12-25T19:07:45.871Z,8.86
2022-12-25T19:08:45.854Z,8.87
2022-12-25T19:09:45.834Z,8.99
2022-12-25T19:10:45.816Z,9.05
2022-12-25T19:11:46.934Z,9.05
2022-12-25T19:12:45.926Z,9.13
2022-12-25T19:13:45.772Z,9.14
2022-12-25T19:14:47.426Z,9.23
2022-12-25T19:15:45.732Z,9.10
2022-12-25T19:16:45.852Z,9.18
2022-12-25T19:17:45.715Z,9.20
2022-12-25T19:18:45.684Z,9.05
2022-12-25T19:19:45.665Z,9.15
2022-12-25T19:20:45.650Z,9.23
2022-12-25T19:21:45.631Z,9.14
2022-12-25T19:22:45.623Z,9.15
2022-12-25T19:23:45.597Z,9.05
2022-12-25T19:24:45.579Z,9.18
2022-12-25T19:25:45.573Z,9.15
2022-12-25T19:26:45.554Z,9.10
2022-12-25T19:27:45.567Z,9.21
2022-12-25T19:28:45.517Z,9.05
2022-12-25T19:29:45.519Z,9.02
2022-12-25T19:30:45.480Z,9.08
2022-12-25T19:31:45.497Z,9.05
2022-12-25T19:32:45.506Z,9.11
2022-12-25T19:33:45.486Z,9.13
2022-12-25T19:34:45.428Z,9.10
2022-12-25T19:35:45.404Z,9.10
2022-12-25T19:36:45.380Z,9.13
2022-12-25T19:37:45.373Z,9.26
2022-12-25T19:38:45.348Z,9.23
2022-12-25T19:39:45.342Z,9.20
2022-12-25T19:40:45.318Z,9.26
2022-12-25T19:41:45.303Z,9.21
2022-12-25T19:42:45.307Z,9.31
2022-12-25T19:43:45.318Z,9.32
2022-12-25T19:44:45.267Z,9.36
2022-12-25T19:45:45.276Z,9.43
2022-12-25T19:46:45.219Z,9.36
2022-12-25T19:47:45.201Z,9.33
2022-12-25T19:48:45.179Z,9.21
2022-12-25T19:49:47.337Z,9.36
2022-12-25T19:50:45.184Z,9.32
2022-12-25T19:51:45.141Z,9.51
2022-12-25T19:52:45.115Z,9.51
2022-12-25T19:53:45.141Z,9.40
2022-12-25T19:54:45.091Z,9.48
2022-12-25T19:55:45.069Z,9.60
2022-12-25T19:56:45.064Z,9.58
2022-12-25T19:57:45.039Z,9.72
2022-12-25T19:58:45.025Z,9.57
2022-12-25T19:59:45.029Z,9.66
2022-12-25T20:00:45.071Z,9.75
2022-12-25T20:01:45.063Z,9.75
2022-12-25T20:02:45.030Z,9.75
2022-12-25T20:03:46.372Z,9.68
2022-12-25T20:04:44.989Z,9.78
2022-12-25T20:05:44.904Z,9.78
2022-12-25T20:06:44.883Z,9.87
2022-12-25T20:07:44.871Z,9.69
2022-12-25T20:08:44.861Z,9.74
2022-12-25T20:09:44.872Z,9.71
2022-12-25T20:10:44.861Z,9.69
2022-12-25T20:11:44.814Z,9.74
2022-12-25T20:12:44.792Z,9.86
2022-12-25T20:13:44.807Z,9.81
2022-12-25T20:14:44.775Z,9.86
2022-12-25T20:15:44.748Z,9.81
2022-12-25T20:16:44.765Z,9.83
2022-12-25T20:17:44.709Z,9.91
2022-12-25T20:18:44.722Z,9.87
2022-12-25T20:19:44.685Z,9.86
2022-12-25T20:20:44.661Z,9.93
2022-12-25T20:21:44.635Z,9.86
2022-12-25T20:22:44.619Z,9.79
2022-12-25T20:23:44.605Z,9.91
2022-12-25T20:24:44.604Z,10.02
2022-12-25T20:25:44.567Z,9.99
2022-12-25T20:26:47.787Z,9.96
2022-12-25T20:27:44.566Z,9.96
2022-12-25T20:28:44.528Z,9.99
2022-12-25T20:29:44.554Z,9.99
2022-12-25T20:30:44.487Z,9.93
2022-12-25T20:31:44.543Z,9.99
2022-12-25T20:32:50.059Z,10.02
2022-12-25T20:33:44.468Z,9.94
2022-12-25T20:34:44.418Z,10.01
2022-12-25T20:35:44.434Z,10.02
2022-12-25T20:36:44.380Z,9.96
2022-12-25T20:37:44.373Z,9.96
2022-12-25T20:38:44.407Z,9.99
2022-12-25T20:39:44.385Z,9.99
2022-12-25T20:41:24.577Z,10.08
2022-12-25T20:41:44.374Z,9.97
2022-12-25T20:42:44.284Z,9.94
2022-12-25T20:43:45.738Z,9.97
2022-12-25T20:44:44.258Z,9.96
2022-12-25T20:45:44.317Z,9.97
2022-12-25T20:46:44.227Z,9.94
2022-12-25T20:47:44.247Z,10.01
2022-12-25T20:48:44.229Z,9.94
2022-12-25T20:49:44.175Z,9.93
2022-12-25T20:50:44.167Z,9.97
2022-12-25T20:51:44.142Z,10.09
2022-12-25T20:52:44.124Z,9.97
2022-12-25T20:53:44.115Z,9.99
2022-12-25T20:54:44.118Z,9.96
2022-12-25T20:55:44.070Z,9.97
2022-12-25T20:56:44.080Z,9.97